createdAt,value
2019-05-07T00:01:52.602Z,136.20
2019-05-07T00:04:22.515Z,134.57
2019-05-07T00:06:52.594Z,130.03
2019-05-07T00:09:23.088Z,137.57
2019-05-07T00:11:50.709Z,131.80
2019-05-07T00:14:19.016Z,87.70
2019-05-07T00:16:47.303Z,75.53
2019-05-07T00:19:15.613Z,76.47
2019-05-07T00:21:44.376Z,95.30
2019-05-07T00:24:13.362Z,98.07
2019-05-07T00:26:43.076Z,109.10
2019-05-07T00:29:12.950Z,115.23
2019-05-07T00:31:42.121Z,105.50
2019-05-07T00:34:12.557Z,121.10
2019-05-07T00:37:02.178Z,140.33
2019-05-07T00:39:42.444Z,131.13
2019-05-07T00:42:15.563Z,128.73
2019-05-07T00:45:16.895Z,131.57
2019-05-07T00:47:34.013Z,133.70
2019-05-07T00:50:06.983Z,128.87
2019-05-07T00:52:35.299Z,122.30
2019-05-07T00:55:05.234Z,118.90
2019-05-07T00:57:33.541Z,169.40
2019-05-07T01:00:02.309Z,143.40
2019-05-07T01:02:32.329Z,137.60
2019-05-07T01:05:03.033Z,142.33
2019-05-07T01:07:32.496Z,137.60
2019-05-07T01:10:02.240Z,138.07
2019-05-07T01:12:32.784Z,134.37
2019-05-07T01:15:02.907Z,132.20
2019-05-07T01:17:33.516Z,129.03
2019-05-07T01:20:02.916Z,117.30
2019-05-07T01:22:33.067Z,109.40
2019-05-07T01:25:02.371Z,118.13
2019-05-07T01:27:32.148Z,133.30
2019-05-07T01:30:02.578Z,164.27
2019-05-07T01:32:35.431Z,163.53
2019-05-07T01:35:07.172Z,150.27
2019-05-07T01:37:35.467Z,156.90
2019-05-07T01:40:04.439Z,156.43
2019-05-07T01:42:33.765Z,148.30
2019-05-07T01:45:03.696Z,159.23
2019-05-07T01:47:33.191Z,153.00
2019-05-07T01:50:03.029Z,144.37
2019-05-07T01:52:33.187Z,149.47
2019-05-07T01:55:03.166Z,147.20
2019-05-07T01:57:32.571Z,142.87
2019-05-07T02:00:02.626Z,141.40
2019-05-07T02:02:35.563Z,140.77
2019-05-07T02:05:13.444Z,139.47
2019-05-07T02:07:43.376Z,135.97
2019-05-07T02:10:13.327Z,135.57
2019-05-07T02:12:42.525Z,133.13
2019-05-07T02:15:11.975Z,135.40
2019-05-07T02:17:42.841Z,132.00
2019-05-07T02:20:12.919Z,128.17
2019-05-07T02:22:42.751Z,130.07
2019-05-07T02:25:12.609Z,128.43
2019-05-07T02:27:42.065Z,120.63
2019-05-07T02:30:14.415Z,119.60
2019-05-07T02:32:43.189Z,119.83
2019-05-07T02:35:13.501Z,114.17
2019-05-07T02:37:51.207Z,113.83
2019-05-07T02:40:14.723Z,113.27
2019-05-07T02:42:44.245Z,114.63
2019-05-07T02:45:23.706Z,111.50
2019-05-07T02:47:52.522Z,108.07
2019-05-07T02:50:26.875Z,105.73
2019-05-07T02:53:04.275Z,105.67
2019-05-07T02:55:37.425Z,109.60
2019-05-07T02:58:05.730Z,105.20
2019-05-07T03:00:34.304Z,103.70
2019-05-07T03:03:04.128Z,102.87
2019-05-07T03:05:34.874Z,103.37
2019-05-07T03:08:03.459Z,99.93
2019-05-07T03:10:33.999Z,98.97
2019-05-07T03:13:03.050Z,94.43
2019-05-07T03:15:33.344Z,99.07
2019-05-07T03:18:03.441Z,91.20
2019-05-07T03:20:35.165Z,92.80
2019-05-07T03:23:04.326Z,92.53
2019-05-07T03:25:54.205Z,91.87
2019-05-07T03:28:24.414Z,89.77
2019-05-07T03:30:57.415Z,90.80
2019-05-07T03:33:27.459Z,88.27
2019-05-07T03:36:00.081Z,93.57
2019-05-07T03:38:28.451Z,84.43
2019-05-07T03:40:56.753Z,85.67
2019-05-07T03:43:27.029Z,86.20
2019-05-07T03:46:09.062Z,87.20
2019-05-07T03:48:39.302Z,82.83
2019-05-07T03:51:07.663Z,79.50
2019-05-07T03:53:36.322Z,84.30
2019-05-07T03:56:04.751Z,77.00
2019-05-07T03:58:34.041Z,83.40
2019-05-07T04:01:04.212Z,76.33
2019-05-07T04:03:34.179Z,78.40
2019-05-07T04:06:03.946Z,79.63
2019-05-07T04:08:33.505Z,76.30
2019-05-07T04:11:03.660Z,73.90
2019-05-07T04:13:33.691Z,72.70
2019-05-07T04:16:04.030Z,74.13
2019-05-07T04:18:33.128Z,70.67
2019-05-07T04:21:03.815Z,70.10
2019-05-07T04:23:34.204Z,72.23
2019-05-07T04:26:04.649Z,72.03
2019-05-07T04:28:37.778Z,68.53
2019-05-07T04:31:06.137Z,70.80
2019-05-07T04:33:36.064Z,71.77
2019-05-07T04:36:08.848Z,66.60
2019-05-07T04:38:37.448Z,69.50
2019-05-07T04:41:05.755Z,64.13
2019-05-07T04:43:34.035Z,61.70
2019-05-07T04:46:03.166Z,62.33
2019-05-07T04:48:34.170Z,61.27
2019-05-07T04:51:03.711Z,62.70
2019-05-07T04:53:32.886Z,61.93
2019-05-07T04:56:03.390Z,61.27
2019-05-07T04:58:33.909Z,58.90
2019-05-07T05:01:03.207Z,60.87
2019-05-07T05:03:34.110Z,60.77
2019-05-07T05:06:02.623Z,58.93
2019-05-07T05:08:32.509Z,60.03
2019-05-07T05:11:03.408Z,57.10
2019-05-07T05:13:33.169Z,56.73
2019-05-07T05:16:02.847Z,54.70
2019-05-07T05:18:32.963Z,57.70
2019-05-07T05:21:19.413Z,55.27
2019-05-07T05:23:49.355Z,54.97
2019-05-07T05:26:17.737Z,54.97
2019-05-07T05:28:46.023Z,53.97
2019-05-07T05:31:14.314Z,53.53
2019-05-07T05:33:42.939Z,53.77
2019-05-07T05:36:12.705Z,52.83
2019-05-07T05:38:42.424Z,53.17
2019-05-07T05:41:12.314Z,51.77
2019-05-07T05:43:54.426Z,47.67
2019-05-07T05:46:24.351Z,53.10
2019-05-07T05:48:52.667Z,50.20
2019-05-07T05:51:25.151Z,48.93
2019-05-07T05:53:57.828Z,50.03
2019-05-07T05:56:36.795Z,48.57
2019-05-07T05:59:12.737Z,45.83
2019-05-07T06:01:42.801Z,48.23
2019-05-07T06:04:32.882Z,49.43
2019-05-07T06:07:19.440Z,47.23
2019-05-07T06:09:49.370Z,48.57
2019-05-07T06:12:25.700Z,44.23
2019-05-07T06:14:58.406Z,45.33
2019-05-07T06:17:37.353Z,45.13
2019-05-07T06:20:09.270Z,44.30
2019-05-07T06:22:45.327Z,45.80
2019-05-07T06:25:18.120Z,42.43
2019-05-07T06:27:46.568Z,45.93
2019-05-07T06:30:15.179Z,44.70
2019-05-07T06:32:43.760Z,44.67
2019-05-07T06:35:12.372Z,44.53
2019-05-07T06:37:42.920Z,46.17
2019-05-07T06:40:29.507Z,40.87
2019-05-07T06:43:03.214Z,41.37
2019-05-07T06:45:36.159Z,42.23
2019-05-07T06:48:04.757Z,42.07
2019-05-07T06:50:33.439Z,42.07
2019-05-07T06:53:02.676Z,40.00
2019-05-07T06:55:32.397Z,43.10
2019-05-07T06:58:02.666Z,37.83
2019-05-07T07:00:33.108Z,37.83
2019-05-07T07:03:22.330Z,69.17
2019-05-07T07:05:52.411Z,130.17
2019-05-07T07:08:41.955Z,107.50
2019-05-07T07:11:22.452Z,104.57
2019-05-07T07:14:02.487Z,106.70
2019-05-07T07:16:32.548Z,95.83
2019-05-07T07:19:03.156Z,99.53
2019-05-07T07:21:32.636Z,93.57
2019-05-07T07:24:03.008Z,85.87
2019-05-07T07:26:32.774Z,94.67
2019-05-07T07:29:02.024Z,95.90
2019-05-07T07:31:32.176Z,104.47
2019-05-07T07:34:02.390Z,105.53
2019-05-07T07:36:32.558Z,108.80
2019-05-07T07:39:02.062Z,104.47
2019-05-07T07:41:35.127Z,92.07
2019-05-07T07:44:04.156Z,93.53
2019-05-07T07:46:33.139Z,90.87
2019-05-07T07:49:07.888Z,108.80
2019-05-07T07:51:38.854Z,107.47
2019-05-07T07:54:02.605Z,91.40
2019-05-07T07:56:49.020Z,94.33
2019-05-07T07:59:16.412Z,77.97
2019-05-07T08:01:58.285Z,72.77
2019-05-07T08:04:26.992Z,80.73
2019-05-07T08:07:04.707Z,96.47
2019-05-07T08:09:33.832Z,87.63
2019-05-07T08:12:02.732Z,82.93
2019-05-07T08:14:32.471Z,74.83
2019-05-07T08:17:02.685Z,74.97
2019-05-07T08:19:32.740Z,69.90
2019-05-07T08:22:02.896Z,72.17
2019-05-07T08:24:32.175Z,77.00
2019-05-07T08:27:02.462Z,70.33
2019-05-07T08:29:32.599Z,70.63
2019-05-07T08:32:22.111Z,74.03
2019-05-07T08:34:52.193Z,72.20
2019-05-07T08:37:24.285Z,68.47
2019-05-07T08:39:52.048Z,71.63
2019-05-07T08:42:22.655Z,66.93
2019-05-07T08:45:04.716Z,66.57
2019-05-07T08:47:53.096Z,71.63
2019-05-07T08:50:22.256Z,70.13
2019-05-07T08:52:52.192Z,61.03
2019-05-07T08:55:21.751Z,61.70
2019-05-07T08:57:52.492Z,64.90
2019-05-07T09:00:22.628Z,66.70
2019-05-07T09:02:52.422Z,58.60
2019-05-07T09:05:22.203Z,64.07
2019-05-07T09:07:51.752Z,85.27
2019-05-07T09:10:21.824Z,116.83
2019-05-07T09:12:52.467Z,88.10
2019-05-07T09:15:22.486Z,85.53
2019-05-07T09:17:52.694Z,86.97
2019-05-07T09:20:22.828Z,114.07
2019-05-07T09:22:51.891Z,133.00
2019-05-07T09:25:22.325Z,135.27
2019-05-07T09:27:52.494Z,122.00
2019-05-07T09:30:28.900Z,120.57
2019-05-07T09:32:58.936Z,124.27
2019-05-07T09:35:39.736Z,148.90
2019-05-07T09:38:07.432Z,161.50
2019-05-07T09:40:35.735Z,173.43
2019-05-07T09:43:04.068Z,166.80
2019-05-07T09:45:32.975Z,150.40
2019-05-07T09:48:02.825Z,155.20
2019-05-07T09:50:32.565Z,141.80
2019-05-07T09:53:02.279Z,142.40
2019-05-07T09:55:32.634Z,147.90
2019-05-07T09:58:02.049Z,141.37
2019-05-07T10:00:31.990Z,137.20
2019-05-07T10:03:00.801Z,137.47
2019-05-07T10:05:29.115Z,137.60
2019-05-07T10:07:57.438Z,147.43
2019-05-07T10:10:25.738Z,169.47
2019-05-07T10:12:55.682Z,149.17
2019-05-07T10:15:23.994Z,136.10
2019-05-07T10:17:57.113Z,126.40
2019-05-07T10:20:25.415Z,105.27
2019-05-07T10:22:53.788Z,104.40
2019-05-07T10:25:22.574Z,97.43
2019-05-07T10:27:53.250Z,95.53
2019-05-07T10:30:21.844Z,96.03
2019-05-07T10:32:52.757Z,96.63
2019-05-07T10:35:22.791Z,98.50
2019-05-07T10:37:52.758Z,93.67
2019-05-07T10:40:22.444Z,99.17
2019-05-07T10:42:51.873Z,92.63
2019-05-07T10:45:38.759Z,94.83
2019-05-07T10:48:14.715Z,83.17
2019-05-07T10:50:45.044Z,137.80
2019-05-07T10:53:13.341Z,173.53
2019-05-07T10:55:42.906Z,162.90
2019-05-07T10:58:11.942Z,126.53
2019-05-07T11:00:42.087Z,118.90
2019-05-07T11:03:12.638Z,110.83
2019-05-07T11:05:41.902Z,132.73
2019-05-07T11:08:10.982Z,116.73
2019-05-07T11:10:41.758Z,111.23
2019-05-07T11:13:10.071Z,125.77
2019-05-07T11:15:38.863Z,123.50
2019-05-07T11:18:23.911Z,117.13
2019-05-07T11:20:53.483Z,112.10
2019-05-07T11:23:22.314Z,122.60
2019-05-07T11:25:53.879Z,118.90
2019-05-07T11:28:22.694Z,126.30
2019-05-07T11:30:51.471Z,143.30
2019-05-07T11:33:21.867Z,140.17
2019-05-07T11:35:53.804Z,128.60
2019-05-07T11:38:24.993Z,126.40
2019-05-07T11:40:52.464Z,123.27
2019-05-07T11:43:22.666Z,125.23
2019-05-07T11:45:54.338Z,121.17
2019-05-07T11:48:24.559Z,116.00
2019-05-07T11:51:09.827Z,112.27
2019-05-07T11:53:41.789Z,108.73
2019-05-07T11:56:11.767Z,104.20
2019-05-07T11:58:40.388Z,105.30
2019-05-07T12:01:16.313Z,105.90
2019-05-07T12:03:44.929Z,109.03
2019-05-07T12:06:13.513Z,115.57
2019-05-07T12:08:49.825Z,106.50
2019-05-07T12:11:12.016Z,112.10
2019-05-07T12:13:42.576Z,117.87
2019-05-07T12:16:13.702Z,127.57
2019-05-07T12:18:42.944Z,142.57
2019-05-07T12:21:20.026Z,118.20
2019-05-07T12:23:42.205Z,127.67
2019-05-07T12:26:12.614Z,113.13
2019-05-07T12:28:41.870Z,110.67
2019-05-07T12:31:12.211Z,115.50
2019-05-07T12:33:48.072Z,116.47
2019-05-07T12:36:16.543Z,117.83
2019-05-07T12:38:44.863Z,114.50
2019-05-07T12:41:33.839Z,121.27
2019-05-07T12:44:05.375Z,133.57
2019-05-07T12:46:33.868Z,119.53
2019-05-07T12:49:03.106Z,118.63
2019-05-07T12:51:37.419Z,179.93
2019-05-07T12:54:12.044Z,182.60
2019-05-07T12:56:42.512Z,156.60
2019-05-07T12:59:12.874Z,145.00
2019-05-07T13:01:48.555Z,142.23
2019-05-07T13:04:18.484Z,175.50
2019-05-07T13:06:48.437Z,184.53
2019-05-07T13:09:17.026Z,174.93
2019-05-07T13:11:45.614Z,148.80
2019-05-07T13:14:14.183Z,154.17
2019-05-07T13:16:42.518Z,142.77
2019-05-07T13:19:12.835Z,168.37
2019-05-07T13:21:49.158Z,147.33
2019-05-07T13:24:11.762Z,135.93
2019-05-07T13:26:42.762Z,132.90
2019-05-07T13:29:12.824Z,131.20
2019-05-07T13:31:41.851Z,131.50
2019-05-07T13:34:12.122Z,130.57
2019-05-07T13:36:42.609Z,130.30
2019-05-07T13:39:12.831Z,129.67
2019-05-07T13:41:43.050Z,125.80
2019-05-07T13:44:22.950Z,118.33
2019-05-07T13:46:53.322Z,110.77
2019-05-07T13:49:22.013Z,105.80
2019-05-07T13:52:03.297Z,97.90
2019-05-07T13:54:21.805Z,81.23
2019-05-07T13:56:52.496Z,88.47
2019-05-07T13:59:22.292Z,82.47
2019-05-07T14:01:52.823Z,73.27
2019-05-07T14:04:22.272Z,69.13
2019-05-07T14:06:52.819Z,59.80
2019-05-07T14:09:24.353Z,60.13
2019-05-07T14:11:52.979Z,55.33
2019-05-07T14:14:22.383Z,53.00
2019-05-07T14:16:53.103Z,49.33
2019-05-07T14:19:22.424Z,51.60
2019-05-07T14:21:52.528Z,52.77
2019-05-07T14:24:22.388Z,52.77
2019-05-07T14:26:52.824Z,53.80
2019-05-07T14:29:24.470Z,45.43
2019-05-07T14:31:55.393Z,47.93
2019-05-07T14:34:28.080Z,43.97
2019-05-07T14:37:12.773Z,44.23
2019-05-07T14:39:42.420Z,38.73
2019-05-07T14:42:22.085Z,40.63
2019-05-07T14:44:52.604Z,41.47
2019-05-07T14:47:22.271Z,36.53
2019-05-07T14:49:52.906Z,37.83
2019-05-07T14:52:30.292Z,34.73
2019-05-07T14:54:51.385Z,34.90
2019-05-07T14:57:22.155Z,32.70
2019-05-07T14:59:52.241Z,35.83
2019-05-07T15:02:20.311Z,34.30
2019-05-07T15:04:48.951Z,39.60
2019-05-07T15:07:17.239Z,35.80
2019-05-07T15:09:45.547Z,32.77
2019-05-07T15:12:14.847Z,31.50
2019-05-07T15:14:43.720Z,40.20
2019-05-07T15:17:18.280Z,31.43
2019-05-07T15:19:46.818Z,89.90
2019-05-07T15:22:28.771Z,85.43
2019-05-07T15:24:57.238Z,62.33
2019-05-07T15:27:25.601Z,61.07
2019-05-07T15:29:53.923Z,53.80
2019-05-07T15:32:22.221Z,46.50
2019-05-07T15:34:52.691Z,43.03
2019-05-07T15:37:21.285Z,45.53
2019-05-07T15:39:49.590Z,44.03
2019-05-07T15:42:18.187Z,40.13
2019-05-07T15:44:46.508Z,36.43
2019-05-07T15:47:19.283Z,37.80
2019-05-07T15:49:47.940Z,52.77
2019-05-07T15:52:18.151Z,59.80
2019-05-07T15:54:46.517Z,121.87
2019-05-07T15:57:16.866Z,108.13
2019-05-07T15:59:45.183Z,102.53
2019-05-07T16:02:22.605Z,92.43
2019-05-07T16:04:51.464Z,87.17
2019-05-07T16:07:22.496Z,76.70
2019-05-07T16:09:52.629Z,73.63
2019-05-07T16:12:22.664Z,78.10
2019-05-07T16:14:52.499Z,74.40
2019-05-07T16:17:25.921Z,72.97
2019-05-07T16:19:55.160Z,70.17
2019-05-07T16:22:25.531Z,70.87
2019-05-07T16:24:54.108Z,63.50
2019-05-07T16:27:22.541Z,66.87
2019-05-07T16:29:52.641Z,63.53
2019-05-07T16:32:23.883Z,64.70
2019-05-07T16:34:52.737Z,61.80
2019-05-07T16:37:21.696Z,58.83
2019-05-07T16:39:52.574Z,58.33
2019-05-07T16:42:21.852Z,55.70
2019-05-07T16:44:52.191Z,55.97
2019-05-07T16:47:20.300Z,54.43
2019-05-07T16:49:49.007Z,59.57
2019-05-07T16:52:17.387Z,52.70
2019-05-07T16:54:45.952Z,60.70
2019-05-07T16:57:15.897Z,62.77
2019-05-07T16:59:44.466Z,53.93
2019-05-07T17:02:14.391Z,56.10
2019-05-07T17:04:44.687Z,58.83
2019-05-07T17:07:14.967Z,81.90
2019-05-07T17:09:43.248Z,61.63
2019-05-07T17:12:13.683Z,66.27
2019-05-07T17:14:42.675Z,58.23
2019-05-07T17:17:12.110Z,61.47
2019-05-07T17:19:42.534Z,58.43
2019-05-07T17:22:12.112Z,58.03
2019-05-07T17:24:42.283Z,58.53
2019-05-07T17:27:11.948Z,58.03
2019-05-07T17:29:42.779Z,53.00
2019-05-07T17:32:12.257Z,50.87
2019-05-07T17:34:42.116Z,48.53
2019-05-07T17:37:12.608Z,55.20
2019-05-07T17:39:42.583Z,47.37
2019-05-07T17:42:11.878Z,71.97
2019-05-07T17:44:40.307Z,47.67
2019-05-07T17:47:08.615Z,60.73
2019-05-07T17:49:36.919Z,58.53
2019-05-07T17:52:05.725Z,61.47
2019-05-07T17:54:34.096Z,63.77
2019-05-07T17:57:02.820Z,59.37
2019-05-07T17:59:32.151Z,74.50
2019-05-07T18:02:18.883Z,91.40
2019-05-07T18:04:51.546Z,100.87
2019-05-07T18:07:18.387Z,93.20
2019-05-07T18:09:46.686Z,84.33
2019-05-07T18:12:15.330Z,84.00
2019-05-07T18:14:43.639Z,87.83
2019-05-07T18:17:22.458Z,84.90
2019-05-07T18:19:50.768Z,78.40
2019-05-07T18:22:22.123Z,76.90
2019-05-07T18:24:52.949Z,81.10
2019-05-07T18:27:22.597Z,73.50
2019-05-07T18:29:52.264Z,74.70
2019-05-07T18:32:21.883Z,91.97
2019-05-07T18:34:51.924Z,91.10
2019-05-07T18:37:22.727Z,154.50
2019-05-07T18:39:52.142Z,164.63
2019-05-07T18:42:22.183Z,116.53
2019-05-07T18:44:52.440Z,88.97
2019-05-07T18:47:22.354Z,87.43
2019-05-07T18:49:51.888Z,90.50
2019-05-07T18:52:22.800Z,85.87
2019-05-07T18:54:52.057Z,80.03
2019-05-07T18:57:22.261Z,82.20
2019-05-07T18:59:53.060Z,86.07
2019-05-07T19:02:22.546Z,81.83
2019-05-07T19:04:52.006Z,88.47
2019-05-07T19:07:22.826Z,72.17
2019-05-07T19:09:51.677Z,68.73
2019-05-07T19:12:23.427Z,66.83
2019-05-07T19:14:52.122Z,67.47
2019-05-07T19:17:21.902Z,64.97
2019-05-07T19:19:52.490Z,64.77
2019-05-07T19:22:22.235Z,68.77
2019-05-07T19:24:52.683Z,66.80
2019-05-07T19:27:22.012Z,73.90
2019-05-07T19:29:50.816Z,126.37
2019-05-07T19:32:19.123Z,116.33
2019-05-07T19:34:47.743Z,127.00
2019-05-07T19:37:16.059Z,105.50
2019-05-07T19:39:44.367Z,87.67
2019-05-07T19:42:12.755Z,90.03
2019-05-07T19:44:43.167Z,84.83
2019-05-07T19:47:12.639Z,87.43
2019-05-07T19:49:41.835Z,80.33
2019-05-07T19:52:12.296Z,85.27
2019-05-07T19:54:42.989Z,121.57
2019-05-07T19:57:12.277Z,111.40
2019-05-07T19:59:42.782Z,108.03
2019-05-07T20:02:12.492Z,88.50
2019-05-07T20:04:42.641Z,73.53
2019-05-07T20:07:12.193Z,73.57
2019-05-07T20:09:42.468Z,72.23
2019-05-07T20:12:10.639Z,80.50
2019-05-07T20:14:38.927Z,81.67
2019-05-07T20:17:07.795Z,75.33
2019-05-07T20:19:36.489Z,99.87
2019-05-07T20:22:05.031Z,80.97
2019-05-07T20:24:33.380Z,84.97
2019-05-07T20:27:03.055Z,69.90
2019-05-07T20:29:32.292Z,62.03
2019-05-07T20:32:00.758Z,68.10
2019-05-07T20:34:29.314Z,70.07
2019-05-07T20:36:57.608Z,65.70
2019-05-07T20:39:25.918Z,62.77
2019-05-07T20:41:54.209Z,68.03
2019-05-07T20:44:22.517Z,67.43
2019-05-07T20:46:53.413Z,68.80
2019-05-07T20:49:22.475Z,69.50
2019-05-07T20:51:52.671Z,67.37
2019-05-07T20:54:28.725Z,69.47
2019-05-07T20:57:14.121Z,63.70
2019-05-07T20:59:42.410Z,66.77
2019-05-07T21:02:11.860Z,62.20
2019-05-07T21:04:42.448Z,67.37
2019-05-07T21:07:11.777Z,76.90
2019-05-07T21:09:42.265Z,83.37
2019-05-07T21:12:12.630Z,109.50
2019-05-07T21:14:41.803Z,106.43
2019-05-07T21:17:11.912Z,106.47
2019-05-07T21:19:42.559Z,109.63
2019-05-07T21:22:12.834Z,99.23
2019-05-07T21:24:42.196Z,92.10
2019-05-07T21:27:12.186Z,102.10
2019-05-07T21:29:42.243Z,96.77
2019-05-07T21:32:12.362Z,98.73
2019-05-07T21:34:42.110Z,100.23
2019-05-07T21:37:12.590Z,94.50
2019-05-07T21:39:42.429Z,90.17
2019-05-07T21:42:13.894Z,93.47
2019-05-07T21:44:43.011Z,89.93
2019-05-07T21:47:12.631Z,86.03
2019-05-07T21:49:43.051Z,88.37
2019-05-07T21:52:12.676Z,87.50
2019-05-07T21:54:46.047Z,90.90
2019-05-07T21:57:32.993Z,82.93
2019-05-07T22:00:12.662Z,80.40
2019-05-07T22:02:41.894Z,90.40
2019-05-07T22:05:11.779Z,89.83
2019-05-07T22:07:40.303Z,98.07
2019-05-07T22:10:08.591Z,105.10
2019-05-07T22:12:38.449Z,105.93
2019-05-07T22:15:06.772Z,112.80
2019-05-07T22:17:35.261Z,97.93
2019-05-07T22:20:04.496Z,130.60
2019-05-07T22:22:32.886Z,116.20
2019-05-07T22:25:04.990Z,115.20
2019-05-07T22:27:32.729Z,116.63
2019-05-07T22:30:02.264Z,109.03
2019-05-07T22:32:47.651Z,99.60
2019-05-07T22:35:34.147Z,106.60
2019-05-07T22:38:03.872Z,99.20
2019-05-07T22:40:32.424Z,104.87
2019-05-07T22:43:02.149Z,105.20
2019-05-07T22:45:32.252Z,105.63
2019-05-07T22:48:02.809Z,100.13
2019-05-07T22:50:33.196Z,91.77
2019-05-07T22:53:02.029Z,94.50
2019-05-07T22:55:32.485Z,100.97
2019-05-07T22:58:08.139Z,101.70
2019-05-07T23:00:38.092Z,108.13
2019-05-07T23:03:06.700Z,105.83
2019-05-07T23:05:35.052Z,98.03
2019-05-07T23:08:03.443Z,105.63
2019-05-07T23:10:33.285Z,100.77
2019-05-07T23:13:02.328Z,99.80
2019-05-07T23:15:32.156Z,109.00
2019-05-07T23:18:04.095Z,105.63
2019-05-07T23:20:31.998Z,103.20
2019-05-07T23:23:00.792Z,97.57
2019-05-07T23:25:29.090Z,156.23
2019-05-07T23:27:57.406Z,129.20
2019-05-07T23:30:26.039Z,132.13
2019-05-07T23:32:54.716Z,127.53
2019-05-07T23:35:23.021Z,130.00
2019-05-07T23:37:52.938Z,137.53
2019-05-07T23:40:26.057Z,143.77
2019-05-07T23:42:56.014Z,121.33
2019-05-07T23:45:24.599Z,124.97
2019-05-07T23:47:53.184Z,123.07
2019-05-07T23:50:21.488Z,123.60
2019-05-07T23:52:50.043Z,146.73
2019-05-07T23:55:18.424Z,127.87
2019-05-07T23:57:46.746Z,144.33
